sensor_id;sensor_type;location;lat;lon;timestamp;pressure;altitude;pressure_sealevel;temperature;humidity
50123;BME280;36021;48.670;6.184;2022-09-09T00:02:23;98639.97;;;17.26;100.00
50123;BME280;36021;48.670;6.184;2022-09-09T00:04:59;98631.94;;;17.25;100.00
50123;BME280;36021;48.670;6.184;2022-09-09T00:07:36;98633.81;;;17.33;100.00
50123;BME280;36021;48.670;6.184;2022-09-09T00:13:28;98633.47;;;17.22;100.00
50123;BME280;36021;48.670;6.184;2022-09-09T00:15:38;98631.75;;;17.17;100.00
50123;BME280;36021;48.670;6.184;2022-09-09T00:21:13;98631.63;;;17.14;100.00
50123;BME280;36021;48.670;6.184;2022-09-09T00:23:54;98630.94;;;17.17;100.00
50123;BME280;36021;48.670;6.184;2022-09-09T00:29:09;98616.63;;;17.06;100.00
50123;BME280;36021;48.670;6.184;2022-09-09T00:31:39;98620.25;;;17.07;100.00
50123;BME280;36021;48.670;6.184;2022-09-09T00:36:39;98628.81;;;17.02;100.00
50123;BME280;36021;48.670;6.184;2022-09-09T00:39:05;98626.97;;;16.94;100.00
50123;BME280;36021;48.670;6.184;2022-09-09T00:44:07;98626.47;;;16.92;100.00
50123;BME280;36021;48.670;6.184;2022-09-09T00:47:03;98638.66;;;16.87;100.00
50123;BME280;36021;48.670;6.184;2022-09-09T00:49:49;98627.78;;;16.94;100.00
50123;BME280;36021;48.670;6.184;2022-09-09T00:55:22;98633.34;;;16.94;100.00
50123;BME280;36021;48.670;6.184;2022-09-09T00:57:52;98644.94;;;16.84;100.00
50123;BME280;36021;48.670;6.184;2022-09-09T01:00:24;98636.22;;;16.86;100.00
50123;BME280;36021;48.670;6.184;2022-09-09T01:05:41;98620.44;;;16.90;100.00
50123;BME280;36021;48.670;6.184;2022-09-09T01:10:51;98618.81;;;16.89;100.00
50123;BME280;36021;48.670;6.184;2022-09-09T01:13:28;98615.59;;;16.87;100.00
50123;BME280;36021;48.670;6.184;2022-09-09T01:16:04;98620.09;;;16.79;100.00
50123;BME280;36021;48.670;6.184;2022-09-09T01:18:40;98616.03;;;16.77;100.00
50123;BME280;36021;48.670;6.184;2022-09-09T01:21:21;98624.03;;;16.78;100.00
50123;BME280;36021;48.670;6.184;2022-09-09T01:27:02;98624.84;;;16.79;100.00
50123;BME280;36021;48.670;6.184;2022-09-09T01:29:29;98621.25;;;16.78;100.00
50123;BME280;36021;48.670;6.184;2022-09-09T01:31:57;98614.38;;;16.76;100.00
50123;BME280;36021;48.670;6.184;2022-09-09T01:34:26;98616.72;;;16.74;100.00
50123;BME280;36021;48.670;6.184;2022-09-09T01:37:07;98610.34;;;16.73;100.00
50123;BME280;36021;48.670;6.184;2022-09-09T01:39:35;98619.06;;;16.84;100.00
50123;BME280;36021;48.670;6.184;2022-09-09T01:42:08;98623.34;;;16.81;100.00
50123;BME280;36021;48.670;6.184;2022-09-09T01:44:35;98618.47;;;16.78;100.00
50123;BME280;36021;48.670;6.184;2022-09-09T01:47:01;98616.47;;;16.79;100.00
50123;BME280;36021;48.670;6.184;2022-09-09T01:49:27;98612.09;;;16.78;100.00
50123;BME280;36021;48.670;6.184;2022-09-09T01:51:55;98618.22;;;16.71;100.00
50123;BME280;36021;48.670;6.184;2022-09-09T01:54:32;98615.69;;;16.78;100.00
50123;BME280;36021;48.670;6.184;2022-09-09T01:57:25;98613.94;;;16.74;100.00
50123;BME280;36021;48.670;6.184;2022-09-09T02:00:08;98602.34;;;16.72;100.00
50123;BME280;36021;48.670;6.184;2022-09-09T02:03:06;98608.03;;;16.75;100.00
50123;BME280;36021;48.670;6.184;2022-09-09T02:06:01;98612.44;;;16.76;100.00
50123;BME280;36021;48.670;6.184;2022-09-09T02:08:47;98611.97;;;16.74;100.00
50123;BME280;36021;48.670;6.184;2022-09-09T02:11:17;98617.16;;;16.76;100.00
50123;BME280;36021;48.670;6.184;2022-09-09T02:13:56;98628.53;;;16.71;100.00
50123;BME280;36021;48.670;6.184;2022-09-09T02:16:32;98628.88;;;16.69;100.00
50123;BME280;36021;48.670;6.184;2022-09-09T02:19:11;98615.09;;;16.73;100.00
50123;BME280;36021;48.670;6.184;2022-09-09T02:21:59;98628.75;;;16.65;100.00
50123;BME280;36021;48.670;6.184;2022-09-09T02:24:28;98637.66;;;16.59;100.00
50123;BME280;36021;48.670;6.184;2022-09-09T02:27:07;98626.88;;;16.57;100.00
50123;BME280;36021;48.670;6.184;2022-09-09T02:29:41;98628.69;;;16.53;100.00
50123;BME280;36021;48.670;6.184;2022-09-09T02:32:12;98635.41;;;16.52;100.00
50123;BME280;36021;48.670;6.184;2022-09-09T02:34:49;98638.09;;;16.49;100.00
50123;BME280;36021;48.670;6.184;2022-09-09T02:37:22;98631.72;;;16.48;100.00
50123;BME280;36021;48.670;6.184;2022-09-09T02:39:52;98634.00;;;16.46;100.00
50123;BME280;36021;48.670;6.184;2022-09-09T02:42:20;98639.56;;;16.46;100.00
50123;BME280;36021;48.670;6.184;2022-09-09T02:44:46;98635.38;;;16.40;100.00
50123;BME280;36021;48.670;6.184;2022-09-09T02:47:34;98639.66;;;16.38;100.00
50123;BME280;36021;48.670;6.184;2022-09-09T02:55:53;98642.91;;;16.40;100.00
50123;BME280;36021;48.670;6.184;2022-09-09T02:58:22;98636.53;;;16.39;100.00
50123;BME280;36021;48.670;6.184;2022-09-09T03:00:56;98637.22;;;16.36;100.00
50123;BME280;36021;48.670;6.184;2022-09-09T03:03:24;98637.44;;;16.31;100.00
50123;BME280;36021;48.670;6.184;2022-09-09T03:05:51;98642.31;;;16.34;100.00
50123;BME280;36021;48.670;6.184;2022-09-09T03:08:17;98648.44;;;16.28;100.00
50123;BME280;36021;48.670;6.184;2022-09-09T03:10:44;98641.22;;;16.27;100.00
50123;BME280;36021;48.670;6.184;2022-09-09T03:13:15;98645.88;;;16.23;100.00
50123;BME280;36021;48.670;6.184;2022-09-09T03:15:41;98640.78;;;16.25;100.00
50123;BME280;36021;48.670;6.184;2022-09-09T03:18:11;98647.63;;;16.27;100.00
50123;BME280;36021;48.670;6.184;2022-09-09T03:20:37;98648.09;;;16.29;100.00
50123;BME280;36021;48.670;6.184;2022-09-09T03:23:02;98652.72;;;16.25;100.00
50123;BME280;36021;48.670;6.184;2022-09-09T03:25:28;98655.94;;;16.27;100.00
50123;BME280;36021;48.670;6.184;2022-09-09T03:27:55;98646.94;;;16.30;100.00
50123;BME280;36021;48.670;6.184;2022-09-09T03:30:23;98652.97;;;16.32;100.00
50123;BME280;36021;48.670;6.184;2022-09-09T03:32:49;98652.84;;;16.29;100.00
50123;BME280;36021;48.670;6.184;2022-09-09T03:35:18;98637.16;;;16.24;100.00
50123;BME280;36021;48.670;6.184;2022-09-09T03:37:44;98651.91;;;16.25;100.00
50123;BME280;36021;48.670;6.184;2022-09-09T03:40:13;98654.53;;;16.21;100.00
50123;BME280;36021;48.670;6.184;2022-09-09T03:42:42;98652.22;;;16.23;100.00
50123;BME280;36021;48.670;6.184;2022-09-09T03:45:11;98657.00;;;16.23;100.00
50123;BME280;36021;48.670;6.184;2022-09-09T03:47:39;98654.00;;;16.28;100.00
50123;BME280;36021;48.670;6.184;2022-09-09T03:50:07;98649.25;;;16.28;100.00
50123;BME280;36021;48.670;6.184;2022-09-09T03:52:36;98649.25;;;16.28;100.00
50123;BME280;36021;48.670;6.184;2022-09-09T03:55:03;98646.66;;;16.23;100.00
50123;BME280;36021;48.670;6.184;2022-09-09T03:57:28;98646.09;;;16.30;100.00
50123;BME280;36021;48.670;6.184;2022-09-09T03:59:55;98642.72;;;16.24;100.00
50123;BME280;36021;48.670;6.184;2022-09-09T04:02:21;98645.31;;;16.29;100.00
50123;BME280;36021;48.670;6.184;2022-09-09T04:04:47;98640.69;;;16.33;100.00
50123;BME280;36021;48.670;6.184;2022-09-09T04:07:13;98635.34;;;16.28;100.00
50123;BME280;36021;48.670;6.184;2022-09-09T04:09:39;98644.81;;;16.27;100.00
50123;BME280;36021;48.670;6.184;2022-09-09T04:12:06;98637.66;;;16.26;100.00
50123;BME280;36021;48.670;6.184;2022-09-09T04:14:33;98634.44;;;16.36;100.00
50123;BME280;36021;48.670;6.184;2022-09-09T04:16:58;98645.44;;;16.33;100.00
50123;BME280;36021;48.670;6.184;2022-09-09T04:19:25;98635.94;;;16.34;100.00
50123;BME280;36021;48.670;6.184;2022-09-09T04:21:51;98635.81;;;16.30;100.00
50123;BME280;36021;48.670;6.184;2022-09-09T04:24:17;98648.28;;;16.24;100.00
50123;BME280;36021;48.670;6.184;2022-09-09T04:26:46;98648.56;;;16.31;100.00
50123;BME280;36021;48.670;6.184;2022-09-09T04:29:12;98654.81;;;16.28;100.00
50123;BME280;36021;48.670;6.184;2022-09-09T04:31:38;98641.22;;;16.27;100.00
50123;BME280;36021;48.670;6.184;2022-09-09T04:34:08;98648.28;;;16.24;100.00
50123;BME280;36021;48.670;6.184;2022-09-09T04:36:34;98653.59;;;16.17;100.00
50123;BME280;36021;48.670;6.184;2022-09-09T04:39:03;98653.25;;;16.19;100.00
50123;BME280;36021;48.670;6.184;2022-09-09T04:41:29;98655.44;;;16.13;100.00
50123;BME280;36021;48.670;6.184;2022-09-09T04:43:56;98650.22;;;16.11;100.00
50123;BME280;36021;48.670;6.184;2022-09-09T04:46:23;98651.75;;;16.00;100.00
50123;BME280;36021;48.670;6.184;2022-09-09T04:48:49;98653.06;;;16.03;100.00
50123;BME280;36021;48.670;6.184;2022-09-09T04:51:17;98657.00;;;16.02;100.00
50123;BME280;36021;48.670;6.184;2022-09-09T04:53:45;98656.72;;;15.95;100.00
50123;BME280;36021;48.670;6.184;2022-09-09T04:56:14;98649.88;;;15.92;100.00
50123;BME280;36021;48.670;6.184;2022-09-09T04:58:52;98658.00;;;15.97;100.00
50123;BME280;36021;48.670;6.184;2022-09-09T05:01:21;98662.28;;;15.95;100.00
50123;BME280;36021;48.670;6.184;2022-09-09T05:03:49;98663.91;;;15.96;100.00
50123;BME280;36021;48.670;6.184;2022-09-09T05:06:20;98659.31;;;16.00;100.00
50123;BME280;36021;48.670;6.184;2022-09-09T05:08:48;98660.25;;;16.04;100.00
50123;BME280;36021;48.670;6.184;2022-09-09T05:11:26;98666.28;;;16.06;100.00
50123;BME280;36021;48.670;6.184;2022-09-09T05:13:59;98657.81;;;16.02;100.00
50123;BME280;36021;48.670;6.184;2022-09-09T05:16:26;98669.75;;;16.03;100.00
50123;BME280;36021;48.670;6.184;2022-09-09T05:18:52;98667.44;;;16.05;100.00
50123;BME280;36021;48.670;6.184;2022-09-09T05:21:22;98665.13;;;16.07;100.00
50123;BME280;36021;48.670;6.184;2022-09-09T05:23:48;98670.69;;;16.07;100.00
50123;BME280;36021;48.670;6.184;2022-09-09T05:26:19;98662.16;;;16.12;100.00
50123;BME280;36021;48.670;6.184;2022-09-09T05:28:47;98666.91;;;16.11;100.00
50123;BME280;36021;48.670;6.184;2022-09-09T05:31:14;98674.91;;;16.13;100.00
50123;BME280;36021;48.670;6.184;2022-09-09T05:33:42;98671.44;;;16.16;100.00
50123;BME280;36021;48.670;6.184;2022-09-09T05:36:15;98673.53;;;16.19;100.00
50123;BME280;36021;48.670;6.184;2022-09-09T05:38:42;98679.78;;;16.16;100.00
50123;BME280;36021;48.670;6.184;2022-09-09T05:41:08;98675.00;;;16.16;100.00
50123;BME280;36021;48.670;6.184;2022-09-09T05:43:36;98676.31;;;16.19;100.00
50123;BME280;36021;48.670;6.184;2022-09-09T05:46:11;98677.06;;;16.28;100.00
50123;BME280;36021;48.670;6.184;2022-09-09T05:48:42;98672.44;;;16.32;100.00
50123;BME280;36021;48.670;6.184;2022-09-09T05:51:10;98677.59;;;16.42;100.00
50123;BME280;36021;48.670;6.184;2022-09-09T05:53:42;98681.56;;;16.53;100.00
50123;BME280;36021;48.670;6.184;2022-09-09T05:56:11;98676.50;;;16.55;100.00
50123;BME280;36021;48.670;6.184;2022-09-09T05:58:38;98685.72;;;16.47;100.00
50123;BME280;36021;48.670;6.184;2022-09-09T06:01:08;98682.06;;;16.55;100.00
50123;BME280;36021;48.670;6.184;2022-09-09T06:03:36;98675.34;;;16.56;100.00
50123;BME280;36021;48.670;6.184;2022-09-09T06:06:05;98680.69;;;16.61;100.00
50123;BME280;36021;48.670;6.184;2022-09-09T06:08:36;98680.59;;;16.49;100.00
50123;BME280;36021;48.670;6.184;2022-09-09T06:11:09;98683.00;;;16.59;100.00
50123;BME280;36021;48.670;6.184;2022-09-09T06:13:38;98683.84;;;16.72;100.00
50123;BME280;36021;48.670;6.184;2022-09-09T06:16:09;98691.53;;;16.75;100.00
50123;BME280;36021;48.670;6.184;2022-09-09T06:18:39;98683.06;;;16.72;100.00
50123;BME280;36021;48.670;6.184;2022-09-09T06:21:06;98684.78;;;16.76;100.00
50123;BME280;36021;48.670;6.184;2022-09-09T06:23:35;98675.06;;;16.82;100.00
50123;BME280;36021;48.670;6.184;2022-09-09T06:26:17;98686.31;;;16.86;100.00
50123;BME280;36021;48.670;6.184;2022-09-09T06:28:46;98680.75;;;16.86;100.00
50123;BME280;36021;48.670;6.184;2022-09-09T06:31:15;98681.25;;;16.88;100.00
50123;BME280;36021;48.670;6.184;2022-09-09T06:33:44;98682.41;;;16.99;100.00
50123;BME280;36021;48.670;6.184;2022-09-09T06:36:14;98681.25;;;17.00;100.00
50123;BME280;36021;48.670;6.184;2022-09-09T06:38:42;98690.06;;;17.02;100.00
50123;BME280;36021;48.670;6.184;2022-09-09T06:41:10;98687.06;;;17.07;100.00
50123;BME280;36021;48.670;6.184;2022-09-09T06:43:38;98689.38;;;17.05;100.00
50123;BME280;36021;48.670;6.184;2022-09-09T06:48:31;98686.84;;;17.12;100.00
50123;BME280;36021;48.670;6.184;2022-09-09T06:51:14;98683.34;;;17.15;100.00
50123;BME280;36021;48.670;6.184;2022-09-09T06:53:42;98681.50;;;17.07;100.00
50123;BME280;36021;48.670;6.184;2022-09-09T06:58:39;98679.88;;;17.18;100.00
50123;BME280;36021;48.670;6.184;2022-09-09T07:01:13;98684.88;;;17.25;100.00
50123;BME280;36021;48.670;6.184;2022-09-09T07:03:41;98674.78;;;17.32;100.00
50123;BME280;36021;48.670;6.184;2022-09-09T07:06:09;98674.78;;;17.44;100.00
50123;BME280;36021;48.670;6.184;2022-09-09T07:08:39;98674.19;;;17.51;100.00
50123;BME280;36021;48.670;6.184;2022-09-09T07:11:08;98678.88;;;17.47;100.00
50123;BME280;36021;48.670;6.184;2022-09-09T07:13:37;98681.41;;;17.52;100.00
50123;BME280;36021;48.670;6.184;2022-09-09T07:16:09;98688.63;;;17.53;100.00
50123;BME280;36021;48.670;6.184;2022-09-09T07:18:35;98693.84;;;17.42;100.00
50123;BME280;36021;48.670;6.184;2022-09-09T07:21:02;98698.00;;;17.48;100.00
50123;BME280;36021;48.670;6.184;2022-09-09T07:23:29;98698.59;;;17.42;100.00
50123;BME280;36021;48.670;6.184;2022-09-09T07:25:56;98693.72;;;17.51;100.00
50123;BME280;36021;48.670;6.184;2022-09-09T07:28:25;98693.81;;;17.54;100.00
50123;BME280;36021;48.670;6.184;2022-09-09T07:33:21;98689.22;;;17.83;100.00
50123;BME280;36021;48.670;6.184;2022-09-09T07:35:49;98690.84;;;17.72;100.00
50123;BME280;36021;48.670;6.184;2022-09-09T07:38:15;98686.19;;;17.76;100.00
50123;BME280;36021;48.670;6.184;2022-09-09T07:40:42;98691.88;;;17.79;100.00
50123;BME280;36021;48.670;6.184;2022-09-09T07:43:09;98679.91;;;17.79;100.00
50123;BME280;36021;48.670;6.184;2022-09-09T07:45:35;98687.81;;;17.77;100.00
50123;BME280;36021;48.670;6.184;2022-09-09T07:48:01;98680.38;;;17.68;100.00
50123;BME280;36021;48.670;6.184;2022-09-09T07:50:28;98695.59;;;17.71;100.00
50123;BME280;36021;48.670;6.184;2022-09-09T07:52:55;98690.63;;;17.77;100.00
50123;BME280;36021;48.670;6.184;2022-09-09T07:55:21;98691.50;;;17.93;100.00
50123;BME280;36021;48.670;6.184;2022-09-09T07:57:52;98685.47;;;17.91;100.00
50123;BME280;36021;48.670;6.184;2022-09-09T08:00:18;98689.50;;;17.93;100.00
50123;BME280;36021;48.670;6.184;2022-09-09T08:02:50;98693.13;;;17.94;100.00
50123;BME280;36021;48.670;6.184;2022-09-09T08:05:16;98689.63;;;17.97;100.00
50123;BME280;36021;48.670;6.184;2022-09-09T08:07:44;98695.91;;;17.94;100.00
50123;BME280;36021;48.670;6.184;2022-09-09T08:10:10;98694.19;;;17.89;100.00
50123;BME280;36021;48.670;6.184;2022-09-09T08:12:39;98699.66;;;17.74;100.00
50123;BME280;36021;48.670;6.184;2022-09-09T08:15:06;98709.53;;;17.83;100.00
50123;BME280;36021;48.670;6.184;2022-09-09T08:17:33;98692.47;;;17.73;100.00
50123;BME280;36021;48.670;6.184;2022-09-09T08:20:03;98709.03;;;17.93;100.00
50123;BME280;36021;48.670;6.184;2022-09-09T08:22:33;98707.97;;;18.10;100.00
50123;BME280;36021;48.670;6.184;2022-09-09T08:24:59;98700.97;;;18.16;100.00
50123;BME280;36021;48.670;6.184;2022-09-09T08:27:27;98701.44;;;19.01;100.00
50123;BME280;36021;48.670;6.184;2022-09-09T08:29:53;98699.41;;;19.30;100.00
50123;BME280;36021;48.670;6.184;2022-09-09T08:32:19;98694.81;;;19.37;100.00
50123;BME280;36021;48.670;6.184;2022-09-09T08:34:45;98684.66;;;19.45;100.00
50123;BME280;36021;48.670;6.184;2022-09-09T08:37:15;98688.06;;;19.54;100.00
50123;BME280;36021;48.670;6.184;2022-09-09T08:39:42;98675.53;;;19.32;100.00
50123;BME280;36021;48.670;6.184;2022-09-09T08:53:39;98680.91;;;18.94;100.00
50123;BME280;36021;48.670;6.184;2022-09-09T08:55:59;98690.72;;;18.88;100.00
50123;BME280;36021;48.670;6.184;2022-09-09T08:58:44;98698.78;;;18.61;100.00
50123;BME280;36021;48.670;6.184;2022-09-09T09:01:41;98695.94;;;18.34;100.00
50123;BME280;36021;48.670;6.184;2022-09-09T09:12:36;98714.53;;;17.90;100.00
50123;BME280;36021;48.670;6.184;2022-09-09T09:15:16;98712.19;;;17.92;100.00
50123;BME280;36021;48.670;6.184;2022-09-09T09:17:43;98713.59;;;17.86;100.00
50123;BME280;36021;48.670;6.184;2022-09-09T09:20:15;98716.59;;;17.81;100.00
50123;BME280;36021;48.670;6.184;2022-09-09T09:22:50;98710.44;;;17.87;100.00
50123;BME280;36021;48.670;6.184;2022-09-09T09:25:23;98720.53;;;18.04;100.00
50123;BME280;36021;48.670;6.184;2022-09-09T09:28:10;98708.84;;;18.38;100.00
50123;BME280;36021;48.670;6.184;2022-09-09T09:31:07;98711.31;;;18.28;100.00
50123;BME280;36021;48.670;6.184;2022-09-09T09:33:53;98715.63;;;18.25;100.00
50123;BME280;36021;48.670;6.184;2022-09-09T09:36:32;98723.41;;;18.19;100.00
50123;BME280;36021;48.670;6.184;2022-09-09T09:39:02;98727.75;;;18.05;100.00
50123;BME280;36021;48.670;6.184;2022-09-09T09:41:34;98721.59;;;17.87;100.00
50123;BME280;36021;48.670;6.184;2022-09-09T09:44:02;98725.56;;;17.74;100.00
50123;BME280;36021;48.670;6.184;2022-09-09T09:46:28;98730.56;;;17.68;100.00
50123;BME280;36021;48.670;6.184;2022-09-09T09:49:05;98719.66;;;17.63;100.00
50123;BME280;36021;48.670;6.184;2022-09-09T09:51:32;98728.47;;;17.78;100.00
50123;BME280;36021;48.670;6.184;2022-09-09T09:56:40;98713.50;;;18.34;100.00
50123;BME280;36021;48.670;6.184;2022-09-09T09:59:22;98711.59;;;18.50;100.00
50123;BME280;36021;48.670;6.184;2022-09-09T10:01:50;98721.75;;;18.70;100.00
50123;BME280;36021;48.670;6.184;2022-09-09T10:04:20;98707.41;;;19.00;100.00
50123;BME280;36021;48.670;6.184;2022-09-09T10:06:47;98705.59;;;18.92;100.00
50123;BME280;36021;48.670;6.184;2022-09-09T10:09:30;98708.84;;;18.94;100.00
50123;BME280;36021;48.670;6.184;2022-09-09T10:17:45;98687.06;;;19.31;100.00
50123;BME280;36021;48.670;6.184;2022-09-09T10:20:26;98694.38;;;19.19;100.00
50123;BME280;36021;48.670;6.184;2022-09-09T10:23:11;98688.50;;;19.71;100.00
50123;BME280;36021;48.670;6.184;2022-09-09T10:29:00;98683.84;;;20.49;100.00
50123;BME280;36021;48.670;6.184;2022-09-09T10:37:19;98661.84;;;20.89;100.00
50123;BME280;36021;48.670;6.184;2022-09-09T10:39:56;98656.13;;;20.82;100.00
50123;BME280;36021;48.670;6.184;2022-09-09T10:42:31;98645.66;;;21.02;100.00
50123;BME280;36021;48.670;6.184;2022-09-09T10:45:18;98647.56;;;20.75;100.00
50123;BME280;36021;48.670;6.184;2022-09-09T10:50:51;98636.31;;;21.36;100.00
50123;BME280;36021;48.670;6.184;2022-09-09T10:53:24;98639.03;;;21.33;100.00
50123;BME280;36021;48.670;6.184;2022-09-09T10:56:01;98645.34;;;21.26;100.00
50123;BME280;36021;48.670;6.184;2022-09-09T10:58:52;98653.06;;;21.10;100.00
50123;BME280;36021;48.670;6.184;2022-09-09T11:01:25;98664.44;;;20.78;100.00
50123;BME280;36021;48.670;6.184;2022-09-09T11:04:21;98659.94;;;20.51;100.00
50123;BME280;36021;48.670;6.184;2022-09-09T11:06:51;98647.28;;;20.80;100.00
50123;BME280;36021;48.670;6.184;2022-09-09T11:09:24;98638.97;;;24.06;100.00
50123;BME280;36021;48.670;6.184;2022-09-09T11:11:56;98628.19;;;25.58;100.00
50123;BME280;36021;48.670;6.184;2022-09-09T11:17:42;98623.56;;;28.44;100.00
50123;BME280;36021;48.670;6.184;2022-09-09T11:20:12;98607.50;;;30.93;100.00
50123;BME280;36021;48.670;6.184;2022-09-09T11:22:39;98618.69;;;31.04;100.00
50123;BME280;36021;48.670;6.184;2022-09-09T11:25:16;98617.28;;;30.92;100.00
50123;BME280;36021;48.670;6.184;2022-09-09T11:31:17;98607.38;;;32.14;100.00
50123;BME280;36021;48.670;6.184;2022-09-09T11:33:53;98590.31;;;31.17;100.00
50123;BME280;36021;48.670;6.184;2022-09-09T11:38:52;98600.88;;;31.52;100.00
50123;BME280;36021;48.670;6.184;2022-09-09T11:41:22;98623.66;;;28.71;100.00
50123;BME280;36021;48.670;6.184;2022-09-09T11:43:52;98618.94;;;26.76;100.00
50123;BME280;36021;48.670;6.184;2022-09-09T11:46:22;98608.56;;;28.14;100.00
50123;BME280;36021;48.670;6.184;2022-09-09T11:49:00;98624.53;;;29.72;100.00
50123;BME280;36021;48.670;6.184;2022-09-09T11:51:29;98618.66;;;28.82;100.00
50123;BME280;36021;48.670;6.184;2022-09-09T11:56:28;98658.97;;;28.33;100.00
50123;BME280;36021;48.670;6.184;2022-09-09T11:59:17;98614.97;;;29.62;100.00
50123;BME280;36021;48.670;6.184;2022-09-09T12:02:03;98616.72;;;29.03;100.00
50123;BME280;36021;48.670;6.184;2022-09-09T12:04:47;98648.63;;;27.13;100.00
50123;BME280;36021;48.670;6.184;2022-09-09T12:07:33;98626.94;;;27.54;100.00
50123;BME280;36021;48.670;6.184;2022-09-09T12:10:21;98615.91;;;26.35;100.00
50123;BME280;36021;48.670;6.184;2022-09-09T12:12:49;98635.00;;;25.22;100.00
50123;BME280;36021;48.670;6.184;2022-09-09T12:15:24;98646.53;;;24.71;100.00
50123;BME280;36021;48.670;6.184;2022-09-09T12:17:53;98646.97;;;23.02;100.00
50123;BME280;36021;48.670;6.184;2022-09-09T12:20:34;98661.97;;;25.02;100.00
50123;BME280;36021;48.670;6.184;2022-09-09T12:23:27;98640.53;;;26.35;100.00
50123;BME280;36021;48.670;6.184;2022-09-09T12:26:17;98636.00;;;27.79;100.00
50123;BME280;36021;48.670;6.184;2022-09-09T12:31:53;98623.63;;;30.02;100.00
50123;BME280;36021;48.670;6.184;2022-09-09T12:34:35;98612.00;;;29.46;100.00
50123;BME280;36021;48.670;6.184;2022-09-09T12:40:00;98605.69;;;30.47;100.00
50123;BME280;36021;48.670;6.184;2022-09-09T12:42:28;98600.97;;;30.96;100.00
50123;BME280;36021;48.670;6.184;2022-09-09T12:44:59;98616.09;;;29.18;100.00
50123;BME280;36021;48.670;6.184;2022-09-09T12:50:37;98621.25;;;27.03;100.00
50123;BME280;36021;48.670;6.184;2022-09-09T12:53:07;98626.91;;;25.24;100.00
50123;BME280;36021;48.670;6.184;2022-09-09T12:55:38;98622.31;;;24.52;100.00
50123;BME280;36021;48.670;6.184;2022-09-09T12:58:05;98610.16;;;24.27;100.00
50123;BME280;36021;48.670;6.184;2022-09-09T13:00:33;98616.50;;;23.08;100.00
50123;BME280;36021;48.670;6.184;2022-09-09T13:03:17;98617.25;;;23.01;100.00
50123;BME280;36021;48.670;6.184;2022-09-09T13:05:44;98629.22;;;22.95;100.00
50123;BME280;36021;48.670;6.184;2022-09-09T13:08:13;98626.34;;;22.88;100.00
50123;BME280;36021;48.670;6.184;2022-09-09T13:10:59;98620.38;;;22.59;100.00
50123;BME280;36021;48.670;6.184;2022-09-09T13:13:35;98629.31;;;22.35;100.00
50123;BME280;36021;48.670;6.184;2022-09-09T13:16:02;98634.44;;;21.96;100.00
50123;BME280;36021;48.670;6.184;2022-09-09T13:18:36;98643.97;;;21.39;100.00
50123;BME280;36021;48.670;6.184;2022-09-09T13:21:04;98644.47;;;21.22;100.00
50123;BME280;36021;48.670;6.184;2022-09-09T13:23:31;98650.69;;;21.12;100.00
50123;BME280;36021;48.670;6.184;2022-09-09T13:26:00;98634.13;;;21.26;100.00
50123;BME280;36021;48.670;6.184;2022-09-09T13:28:29;98632.28;;;22.16;100.00
50123;BME280;36021;48.670;6.184;2022-09-09T13:31:18;98625.59;;;22.57;100.00
50123;BME280;36021;48.670;6.184;2022-09-09T13:33:44;98621.16;;;24.64;100.00
50123;BME280;36021;48.670;6.184;2022-09-09T13:36:12;98616.81;;;26.01;100.00
50123;BME280;36021;48.670;6.184;2022-09-09T13:41:22;98603.19;;;27.37;100.00
50123;BME280;36021;48.670;6.184;2022-09-09T13:43:50;98602.97;;;29.01;100.00
50123;BME280;36021;48.670;6.184;2022-09-09T13:46:36;98598.56;;;29.96;100.00
50123;BME280;36021;48.670;6.184;2022-09-09T13:51:35;98582.66;;;32.52;100.00
50123;BME280;36021;48.670;6.184;2022-09-09T13:54:06;98575.72;;;31.47;100.00
50123;BME280;36021;48.670;6.184;2022-09-09T13:56:35;98570.31;;;32.42;100.00
50123;BME280;36021;48.670;6.184;2022-09-09T13:59:02;98577.03;;;33.02;100.00
50123;BME280;36021;48.670;6.184;2022-09-09T14:01:28;98575.75;;;32.78;100.00
50123;BME280;36021;48.670;6.184;2022-09-09T14:03:56;98571.19;;;32.93;100.00
50123;BME280;36021;48.670;6.184;2022-09-09T14:06:21;98578.63;;;32.78;100.00
50123;BME280;36021;48.670;6.184;2022-09-09T14:08:49;98584.94;;;33.24;100.00
50123;BME280;36021;48.670;6.184;2022-09-09T14:11:16;98580.13;;;33.46;100.00
50123;BME280;36021;48.670;6.184;2022-09-09T14:13:42;98579.47;;;33.17;100.00
50123;BME280;36021;48.670;6.184;2022-09-09T14:16:09;98576.00;;;32.14;100.00
50123;BME280;36021;48.670;6.184;2022-09-09T14:18:35;98579.31;;;32.95;100.00
50123;BME280;36021;48.670;6.184;2022-09-09T14:21:03;98583.00;;;31.16;100.00
50123;BME280;36021;48.670;6.184;2022-09-09T14:23:29;98580.91;;;33.09;100.00
50123;BME280;36021;48.670;6.184;2022-09-09T14:25:56;98584.22;;;32.82;100.00
50123;BME280;36021;48.670;6.184;2022-09-09T14:28:23;98585.22;;;32.34;100.00
50123;BME280;36021;48.670;6.184;2022-09-09T14:30:49;98579.03;;;32.23;100.00
50123;BME280;36021;48.670;6.184;2022-09-09T14:33:15;98578.75;;;32.46;100.00
50123;BME280;36021;48.670;6.184;2022-09-09T14:35:43;98574.69;;;32.31;100.00
50123;BME280;36021;48.670;6.184;2022-09-09T14:38:09;98580.72;;;31.75;100.00
50123;BME280;36021;48.670;6.184;2022-09-09T14:40:36;98586.88;;;31.74;100.00
50123;BME280;36021;48.670;6.184;2022-09-09T14:43:04;98580.50;;;30.07;100.00
50123;BME280;36021;48.670;6.184;2022-09-09T14:45:32;98584.06;;;29.68;100.00
50123;BME280;36021;48.670;6.184;2022-09-09T14:47:57;98587.47;;;30.02;100.00
50123;BME280;36021;48.670;6.184;2022-09-09T14:50:23;98584.38;;;30.36;100.00
50123;BME280;36021;48.670;6.184;2022-09-09T14:52:49;98588.94;;;29.67;100.00
50123;BME280;36021;48.670;6.184;2022-09-09T14:55:16;98582.25;;;29.77;100.00
50123;BME280;36021;48.670;6.184;2022-09-09T14:57:42;98587.66;;;29.45;100.00